sensor_id;sensor_type;location;lat;lon;timestamp;P1;durP1;ratioP1;P2;durP2;ratioP2
64520;SDS011;50896;46.714;17.322;2023-06-24T00:00:22;5.55;;;3.90;;
64520;SDS011;50896;46.714;17.322;2023-06-24T00:02:48;5.00;;;3.72;;
64520;SDS011;50896;46.714;17.322;2023-06-24T00:05:17;6.00;;;3.40;;
64520;SDS011;50896;46.714;17.322;2023-06-24T00:07:44;4.90;;;3.67;;
64520;SDS011;50896;46.714;17.322;2023-06-24T00:10:13;4.70;;;3.33;;
64520;SDS011;50896;46.714;17.322;2023-06-24T00:12:42;3.97;;;3.10;;
64520;SDS011;50896;46.714;17.322;2023-06-24T00:15:09;6.15;;;3.28;;
64520;SDS011;50896;46.714;17.322;2023-06-24T00:17:36;3.75;;;3.25;;
64520;SDS011;50896;46.714;17.322;2023-06-24T00:20:04;4.72;;;3.53;;
64520;SDS011;50896;46.714;17.322;2023-06-24T00:22:33;4.90;;;3.30;;
64520;SDS011;50896;46.714;17.322;2023-06-24T00:25:00;3.38;;;2.78;;
64520;SDS011;50896;46.714;17.322;2023-06-24T00:27:27;3.78;;;3.05;;
64520;SDS011;50896;46.714;17.322;2023-06-24T00:29:54;3.55;;;2.85;;
64520;SDS011;50896;46.714;17.322;2023-06-24T00:32:21;4.47;;;2.90;;
64520;SDS011;50896;46.714;17.322;2023-06-24T00:34:48;3.60;;;2.83;;
64520;SDS011;50896;46.714;17.322;2023-06-24T00:37:17;3.63;;;2.45;;
64520;SDS011;50896;46.714;17.322;2023-06-24T00:39:44;2.45;;;2.20;;
64520;SDS011;50896;46.714;17.322;2023-06-24T00:42:10;4.38;;;2.70;;
64520;SDS011;50896;46.714;17.322;2023-06-24T00:44:37;4.18;;;2.80;;
64520;SDS011;50896;46.714;17.322;2023-06-24T00:47:06;4.20;;;2.30;;
64520;SDS011;50896;46.714;17.322;2023-06-24T00:49:34;3.38;;;2.50;;
64520;SDS011;50896;46.714;17.322;2023-06-24T00:52:01;3.08;;;2.15;;
64520;SDS011;50896;46.714;17.322;2023-06-24T00:54:28;3.30;;;1.90;;
64520;SDS011;50896;46.714;17.322;2023-06-24T00:56:58;2.78;;;1.90;;
64520;SDS011;50896;46.714;17.322;2023-06-24T00:59:27;3.53;;;1.70;;
64520;SDS011;50896;46.714;17.322;2023-06-24T01:01:59;3.03;;;1.63;;
64520;SDS011;50896;46.714;17.322;2023-06-24T01:04:28;1.60;;;1.40;;
64520;SDS011;50896;46.714;17.322;2023-06-24T01:06:55;2.33;;;1.30;;
64520;SDS011;50896;46.714;17.322;2023-06-24T01:09:23;1.25;;;0.95;;
64520;SDS011;50896;46.714;17.322;2023-06-24T01:11:51;2.65;;;1.40;;
64520;SDS011;50896;46.714;17.322;2023-06-24T01:14:18;1.35;;;1.02;;
64520;SDS011;50896;46.714;17.322;2023-06-24T01:16:53;2.03;;;1.10;;
64520;SDS011;50896;46.714;17.322;2023-06-24T01:19:36;1.35;;;0.98;;
64520;SDS011;50896;46.714;17.322;2023-06-24T01:25:33;2.55;;;1.10;;
64520;SDS011;50896;46.714;17.322;2023-06-24T01:33:22;1.30;;;0.57;;
64520;SDS011;50896;46.714;17.322;2023-06-24T01:35:53;3.08;;;0.60;;
64520;SDS011;50896;46.714;17.322;2023-06-24T01:38:31;1.90;;;0.63;;
64520;SDS011;50896;46.714;17.322;2023-06-24T01:41:04;1.15;;;0.90;;
64520;SDS011;50896;46.714;17.322;2023-06-24T01:43:33;3.30;;;1.13;;
64520;SDS011;50896;46.714;17.322;2023-06-24T01:46:02;3.00;;;0.50;;
64520;SDS011;50896;46.714;17.322;2023-06-24T01:48:34;1.23;;;0.50;;
64520;SDS011;50896;46.714;17.322;2023-06-24T01:51:08;2.05;;;0.75;;
64520;SDS011;50896;46.714;17.322;2023-06-24T01:53:39;0.85;;;0.50;;
64520;SDS011;50896;46.714;17.322;2023-06-24T01:56:11;1.83;;;0.63;;
64520;SDS011;50896;46.714;17.322;2023-06-24T01:58:43;1.27;;;0.40;;
64520;SDS011;50896;46.714;17.322;2023-06-24T02:01:13;0.75;;;0.50;;
64520;SDS011;50896;46.714;17.322;2023-06-24T02:03:41;2.00;;;0.40;;
64520;SDS011;50896;46.714;17.322;2023-06-24T02:06:09;1.67;;;0.50;;
64520;SDS011;50896;46.714;17.322;2023-06-24T02:08:38;0.70;;;0.50;;
64520;SDS011;50896;46.714;17.322;2023-06-24T02:13:35;0.35;;;0.25;;
64520;SDS011;50896;46.714;17.322;2023-06-24T02:16:11;0.30;;;0.30;;
64520;SDS011;50896;46.714;17.322;2023-06-24T02:18:40;2.80;;;0.35;;
64520;SDS011;50896;46.714;17.322;2023-06-24T02:21:10;2.92;;;0.30;;
64520;SDS011;50896;46.714;17.322;2023-06-24T02:23:39;2.15;;;0.20;;
64520;SDS011;50896;46.714;17.322;2023-06-24T02:26:06;5.15;;;0.40;;
64520;SDS011;50896;46.714;17.322;2023-06-24T02:28:34;3.03;;;0.40;;
64520;SDS011;50896;46.714;17.322;2023-06-24T02:31:02;2.40;;;0.30;;
64520;SDS011;50896;46.714;17.322;2023-06-24T02:33:29;1.08;;;0.30;;
64520;SDS011;50896;46.714;17.322;2023-06-24T02:35:56;0.85;;;0.20;;
64520;SDS011;50896;46.714;17.322;2023-06-24T02:38:24;1.58;;;0.40;;
64520;SDS011;50896;46.714;17.322;2023-06-24T02:40:54;0.85;;;0.30;;
64520;SDS011;50896;46.714;17.322;2023-06-24T02:43:21;2.30;;;0.30;;
64520;SDS011;50896;46.714;17.322;2023-06-24T02:45:47;0.60;;;0.30;;
64520;SDS011;50896;46.714;17.322;2023-06-24T02:48:15;0.28;;;0.28;;
64520;SDS011;50896;46.714;17.322;2023-06-24T02:50:44;1.08;;;0.47;;
64520;SDS011;50896;46.714;17.322;2023-06-24T02:53:12;0.30;;;0.30;;
64520;SDS011;50896;46.714;17.322;2023-06-24T02:55:40;0.40;;;0.30;;
64520;SDS011;50896;46.714;17.322;2023-06-24T02:58:09;0.30;;;0.30;;
64520;SDS011;50896;46.714;17.322;2023-06-24T03:00:45;1.05;;;0.30;;
64520;SDS011;50896;46.714;17.322;2023-06-24T03:03:26;0.30;;;0.30;;
64520;SDS011;50896;46.714;17.322;2023-06-24T03:05:56;0.47;;;0.30;;
64520;SDS011;50896;46.714;17.322;2023-06-24T03:08:25;1.83;;;0.40;;
64520;SDS011;50896;46.714;17.322;2023-06-24T03:10:55;0.35;;;0.30;;
64520;SDS011;50896;46.714;17.322;2023-06-24T03:13:24;0.40;;;0.35;;
64520;SDS011;50896;46.714;17.322;2023-06-24T03:15:59;1.17;;;0.30;;
64520;SDS011;50896;46.714;17.322;2023-06-24T03:20:56;0.30;;;0.30;;
64520;SDS011;50896;46.714;17.322;2023-06-24T03:23:26;0.55;;;0.40;;
64520;SDS011;50896;46.714;17.322;2023-06-24T03:25:53;0.50;;;0.30;;
64520;SDS011;50896;46.714;17.322;2023-06-24T03:28:20;3.00;;;0.50;;
64520;SDS011;50896;46.714;17.322;2023-06-24T03:30:55;0.25;;;0.20;;
64520;SDS011;50896;46.714;17.322;2023-06-24T03:33:22;0.50;;;0.20;;
64520;SDS011;50896;46.714;17.322;2023-06-24T03:35:48;0.68;;;0.20;;
64520;SDS011;50896;46.714;17.322;2023-06-24T03:38:19;0.20;;;0.20;;
64520;SDS011;50896;46.714;17.322;2023-06-24T03:40:46;0.45;;;0.20;;
64520;SDS011;50896;46.714;17.322;2023-06-24T03:43:13;0.95;;;0.32;;
64520;SDS011;50896;46.714;17.322;2023-06-24T03:45:40;0.30;;;0.30;;
64520;SDS011;50896;46.714;17.322;2023-06-24T03:48:07;1.10;;;0.25;;
64520;SDS011;50896;46.714;17.322;2023-06-24T03:50:34;1.50;;;0.32;;
64520;SDS011;50896;46.714;17.322;2023-06-24T03:53:02;0.30;;;0.20;;
64520;SDS011;50896;46.714;17.322;2023-06-24T03:55:29;1.05;;;0.40;;
64520;SDS011;50896;46.714;17.322;2023-06-24T03:57:57;0.63;;;0.40;;
64520;SDS011;50896;46.714;17.322;2023-06-24T04:00:25;0.22;;;0.22;;
64520;SDS011;50896;46.714;17.322;2023-06-24T04:02:52;0.30;;;0.30;;
64520;SDS011;50896;46.714;17.322;2023-06-24T04:05:20;0.30;;;0.30;;
64520;SDS011;50896;46.714;17.322;2023-06-24T04:07:48;0.63;;;0.40;;
64520;SDS011;50896;46.714;17.322;2023-06-24T04:10:17;0.47;;;0.47;;
64520;SDS011;50896;46.714;17.322;2023-06-24T04:12:45;1.20;;;0.40;;
64520;SDS011;50896;46.714;17.322;2023-06-24T04:15:13;0.70;;;0.57;;
64520;SDS011;50896;46.714;17.322;2023-06-24T04:17:39;1.05;;;0.40;;
64520;SDS011;50896;46.714;17.322;2023-06-24T04:20:07;0.63;;;0.40;;
64520;SDS011;50896;46.714;17.322;2023-06-24T04:22:38;0.82;;;0.50;;
64520;SDS011;50896;46.714;17.322;2023-06-24T04:25:06;1.15;;;0.50;;
64520;SDS011;50896;46.714;17.322;2023-06-24T04:27:34;5.18;;;0.60;;
64520;SDS011;50896;46.714;17.322;2023-06-24T04:30:05;1.85;;;0.52;;
64520;SDS011;50896;46.714;17.322;2023-06-24T04:32:32;0.77;;;0.40;;
64520;SDS011;50896;46.714;17.322;2023-06-24T04:34:59;0.70;;;0.60;;
64520;SDS011;50896;46.714;17.322;2023-06-24T04:37:27;1.90;;;0.63;;
64520;SDS011;50896;46.714;17.322;2023-06-24T04:39:55;2.08;;;0.65;;
64520;SDS011;50896;46.714;17.322;2023-06-24T04:42:22;2.90;;;0.57;;
64520;SDS011;50896;46.714;17.322;2023-06-24T04:44:50;0.40;;;0.40;;
64520;SDS011;50896;46.714;17.322;2023-06-24T04:49:46;1.77;;;0.65;;
64520;SDS011;50896;46.714;17.322;2023-06-24T04:52:13;0.65;;;0.65;;
64520;SDS011;50896;46.714;17.322;2023-06-24T04:54:40;0.65;;;0.40;;
64520;SDS011;50896;46.714;17.322;2023-06-24T04:57:22;0.50;;;0.50;;
64520;SDS011;50896;46.714;17.322;2023-06-24T04:59:53;1.13;;;0.50;;
64520;SDS011;50896;46.714;17.322;2023-06-24T05:02:20;0.50;;;0.50;;
64520;SDS011;50896;46.714;17.322;2023-06-24T05:04:47;0.60;;;0.50;;
64520;SDS011;50896;46.714;17.322;2023-06-24T05:07:14;1.70;;;0.55;;
64520;SDS011;50896;46.714;17.322;2023-06-24T05:09:41;3.03;;;0.60;;
64520;SDS011;50896;46.714;17.322;2023-06-24T05:12:09;0.70;;;0.57;;
64520;SDS011;50896;46.714;17.322;2023-06-24T05:14:36;0.88;;;0.65;;
64520;SDS011;50896;46.714;17.322;2023-06-24T05:17:03;1.40;;;0.70;;
64520;SDS011;50896;46.714;17.322;2023-06-24T05:19:30;0.70;;;0.50;;
64520;SDS011;50896;46.714;17.322;2023-06-24T05:21:58;5.35;;;0.60;;
64520;SDS011;50896;46.714;17.322;2023-06-24T05:24:25;0.88;;;0.57;;
64520;SDS011;50896;46.714;17.322;2023-06-24T05:26:52;2.63;;;0.60;;
64520;SDS011;50896;46.714;17.322;2023-06-24T05:29:19;0.82;;;0.60;;
64520;SDS011;50896;46.714;17.322;2023-06-24T05:31:46;0.40;;;0.40;;
64520;SDS011;50896;46.714;17.322;2023-06-24T05:34:13;1.25;;;0.60;;
64520;SDS011;50896;46.714;17.322;2023-06-24T05:36:39;1.27;;;0.50;;
64520;SDS011;50896;46.714;17.322;2023-06-24T05:39:06;1.50;;;0.70;;
64520;SDS011;50896;46.714;17.322;2023-06-24T05:41:34;0.73;;;0.70;;
64520;SDS011;50896;46.714;17.322;2023-06-24T05:44:06;0.75;;;0.60;;
64520;SDS011;50896;46.714;17.322;2023-06-24T05:46:34;1.13;;;0.57;;
64520;SDS011;50896;46.714;17.322;2023-06-24T05:49:01;1.42;;;0.60;;
64520;SDS011;50896;46.714;17.322;2023-06-24T05:51:27;4.82;;;0.80;;
64520;SDS011;50896;46.714;17.322;2023-06-24T05:53:54;0.90;;;0.70;;
64520;SDS011;50896;46.714;17.322;2023-06-24T05:56:23;1.65;;;0.65;;
64520;SDS011;50896;46.714;17.322;2023-06-24T05:58:50;0.40;;;0.40;;
64520;SDS011;50896;46.714;17.322;2023-06-24T06:01:17;0.98;;;0.43;;
64520;SDS011;50896;46.714;17.322;2023-06-24T06:03:44;0.50;;;0.50;;
64520;SDS011;50896;46.714;17.322;2023-06-24T06:06:11;1.15;;;0.40;;
64520;SDS011;50896;46.714;17.322;2023-06-24T06:08:38;2.50;;;0.55;;
64520;SDS011;50896;46.714;17.322;2023-06-24T06:11:05;2.45;;;0.70;;
64520;SDS011;50896;46.714;17.322;2023-06-24T06:13:32;0.90;;;0.50;;
64520;SDS011;50896;46.714;17.322;2023-06-24T06:15:59;1.35;;;0.50;;
64520;SDS011;50896;46.714;17.322;2023-06-24T06:18:26;1.30;;;0.43;;
64520;SDS011;50896;46.714;17.322;2023-06-24T06:20:53;0.57;;;0.50;;
64520;SDS011;50896;46.714;17.322;2023-06-24T06:23:19;0.50;;;0.38;;
64520;SDS011;50896;46.714;17.322;2023-06-24T06:25:46;1.10;;;0.40;;
64520;SDS011;50896;46.714;17.322;2023-06-24T06:28:14;0.38;;;0.32;;
64520;SDS011;50896;46.714;17.322;2023-06-24T06:30:41;0.57;;;0.30;;
64520;SDS011;50896;46.714;17.322;2023-06-24T06:33:08;1.63;;;0.30;;
64520;SDS011;50896;46.714;17.322;2023-06-24T06:35:35;1.17;;;0.40;;
64520;SDS011;50896;46.714;17.322;2023-06-24T06:38:02;1.67;;;0.40;;
64520;SDS011;50896;46.714;17.322;2023-06-24T06:40:29;0.30;;;0.30;;
64520;SDS011;50896;46.714;17.322;2023-06-24T06:42:55;0.85;;;0.38;;
64520;SDS011;50896;46.714;17.322;2023-06-24T06:45:23;2.00;;;0.30;;
64520;SDS011;50896;46.714;17.322;2023-06-24T06:47:49;2.53;;;0.40;;
64520;SDS011;50896;46.714;17.322;2023-06-24T06:50:17;0.40;;;0.40;;
64520;SDS011;50896;46.714;17.322;2023-06-24T06:52:44;4.50;;;0.30;;
64520;SDS011;50896;46.714;17.322;2023-06-24T06:55:10;0.63;;;0.20;;
64520;SDS011;50896;46.714;17.322;2023-06-24T06:57:37;2.70;;;0.30;;
64520;SDS011;50896;46.714;17.322;2023-06-24T07:00:04;1.45;;;0.35;;
64520;SDS011;50896;46.714;17.322;2023-06-24T07:02:31;0.43;;;0.20;;
64520;SDS011;50896;46.714;17.322;2023-06-24T07:04:59;1.23;;;0.22;;
64520;SDS011;50896;46.714;17.322;2023-06-24T07:07:27;1.07;;;0.27;;
64520;SDS011;50896;46.714;17.322;2023-06-24T07:09:54;0.60;;;0.20;;
64520;SDS011;50896;46.714;17.322;2023-06-24T07:12:21;0.20;;;0.20;;
64520;SDS011;50896;46.714;17.322;2023-06-24T07:14:50;0.28;;;0.20;;
64520;SDS011;50896;46.714;17.322;2023-06-24T07:17:17;1.13;;;0.30;;
64520;SDS011;50896;46.714;17.322;2023-06-24T07:19:44;1.00;;;0.10;;
64520;SDS011;50896;46.714;17.322;2023-06-24T07:22:11;0.52;;;0.30;;
64520;SDS011;50896;46.714;17.322;2023-06-24T07:24:38;1.05;;;0.30;;
64520;SDS011;50896;46.714;17.322;2023-06-24T07:27:04;1.48;;;0.30;;
64520;SDS011;50896;46.714;17.322;2023-06-24T07:29:32;1.08;;;0.20;;
64520;SDS011;50896;46.714;17.322;2023-06-24T07:31:58;1.42;;;0.10;;
64520;SDS011;50896;46.714;17.322;2023-06-24T07:34:25;14.30;;;1.15;;
64520;SDS011;50896;46.714;17.322;2023-06-24T07:36:52;0.85;;;0.30;;
64520;SDS011;50896;46.714;17.322;2023-06-24T07:39:19;0.30;;;0.10;;
64520;SDS011;50896;46.714;17.322;2023-06-24T07:41:46;0.55;;;0.10;;
64520;SDS011;50896;46.714;17.322;2023-06-24T07:44:13;1.27;;;0.20;;
64520;SDS011;50896;46.714;17.322;2023-06-24T07:46:40;1.05;;;0.30;;
64520;SDS011;50896;46.714;17.322;2023-06-24T07:49:06;0.20;;;0.20;;
64520;SDS011;50896;46.714;17.322;2023-06-24T07:51:34;0.30;;;0.15;;
64520;SDS011;50896;46.714;17.322;2023-06-24T07:54:01;0.30;;;0.20;;
64520;SDS011;50896;46.714;17.322;2023-06-24T07:56:28;1.15;;;0.20;;
64520;SDS011;50896;46.714;17.322;2023-06-24T07:58:55;2.65;;;0.30;;
64520;SDS011;50896;46.714;17.322;2023-06-24T08:01:21;0.65;;;0.30;;
64520;SDS011;50896;46.714;17.322;2023-06-24T08:03:48;1.27;;;0.38;;
64520;SDS011;50896;46.714;17.322;2023-06-24T08:06:15;3.22;;;0.40;;
64520;SDS011;50896;46.714;17.322;2023-06-24T08:08:42;1.83;;;0.30;;
64520;SDS011;50896;46.714;17.322;2023-06-24T08:11:09;2.38;;;0.40;;
64520;SDS011;50896;46.714;17.322;2023-06-24T08:13:36;0.95;;;0.40;;
64520;SDS011;50896;46.714;17.322;2023-06-24T08:16:02;1.75;;;0.30;;
64520;SDS011;50896;46.714;17.322;2023-06-24T08:18:29;1.23;;;0.50;;
64520;SDS011;50896;46.714;17.322;2023-06-24T08:20:56;5.13;;;0.80;;
64520;SDS011;50896;46.714;17.322;2023-06-24T08:23:23;2.83;;;0.30;;
64520;SDS011;50896;46.714;17.322;2023-06-24T08:25:49;2.78;;;0.63;;
64520;SDS011;50896;46.714;17.322;2023-06-24T08:28:24;2.88;;;0.50;;
64520;SDS011;50896;46.714;17.322;2023-06-24T08:30:50;4.05;;;0.50;;
64520;SDS011;50896;46.714;17.322;2023-06-24T08:33:17;1.65;;;0.50;;
64520;SDS011;50896;46.714;17.322;2023-06-24T08:35:44;0.90;;;0.30;;
64520;SDS011;50896;46.714;17.322;2023-06-24T08:38:11;0.30;;;0.30;;
64520;SDS011;50896;46.714;17.322;2023-06-24T08:40:38;0.32;;;0.20;;
64520;SDS011;50896;46.714;17.322;2023-06-24T08:43:06;0.45;;;0.15;;
64520;SDS011;50896;46.714;17.322;2023-06-24T08:45:33;3.80;;;0.30;;
64520;SDS011;50896;46.714;17.322;2023-06-24T08:48:00;0.52;;;0.10;;
64520;SDS011;50896;46.714;17.322;2023-06-24T08:50:31;0.43;;;0.10;;
64520;SDS011;50896;46.714;17.322;2023-06-24T08:53:07;0.32;;;0.20;;
64520;SDS011;50896;46.714;17.322;2023-06-24T08:55:36;1.55;;;0.15;;
64520;SDS011;50896;46.714;17.322;2023-06-24T08:58:07;0.15;;;0.10;;
64520;SDS011;50896;46.714;17.322;2023-06-24T09:00:34;0.70;;;0.10;;
64520;SDS011;50896;46.714;17.322;2023-06-24T09:03:01;2.40;;;0.10;;
64520;SDS011;50896;46.714;17.322;2023-06-24T09:05:28;0.03;;;0.00;;
64520;SDS011;50896;46.714;17.322;2023-06-24T09:07:55;1.95;;;0.10;;
64520;SDS011;50896;46.714;17.322;2023-06-24T09:10:29;1.70;;;0.10;;
64520;SDS011;50896;46.714;17.322;2023-06-24T09:12:58;0.98;;;0.10;;
64520;SDS011;50896;46.714;17.322;2023-06-24T09:15:32;0.57;;;0.28;;
64520;SDS011;50896;46.714;17.322;2023-06-24T09:18:01;0.00;;;0.00;;
64520;SDS011;50896;46.714;17.322;2023-06-24T09:20:29;0.15;;;0.10;;
64520;SDS011;50896;46.714;17.322;2023-06-24T09:23:01;0.20;;;0.20;;
64520;SDS011;50896;46.714;17.322;2023-06-24T09:25:29;0.40;;;0.08;;
64520;SDS011;50896;46.714;17.322;2023-06-24T09:28:03;0.45;;;0.10;;
64520;SDS011;50896;46.714;17.322;2023-06-24T09:30:30;0.00;;;0.00;;
64520;SDS011;50896;46.714;17.322;2023-06-24T09:32:57;0.28;;;0.10;;
64520;SDS011;50896;46.714;17.322;2023-06-24T09:35:24;1.25;;;0.10;;
64520;SDS011;50896;46.714;17.322;2023-06-24T09:37:56;0.60;;;0.00;;
64520;SDS011;50896;46.714;17.322;2023-06-24T09:40:25;0.08;;;0.08;;
64520;SDS011;50896;46.714;17.322;2023-06-24T09:42:56;0.60;;;0.10;;
64520;SDS011;50896;46.714;17.322;2023-06-24T09:45:27;1.23;;;0.10;;
64520;SDS011;50896;46.714;17.322;2023-06-24T09:47:55;0.20;;;0.10;;
64520;SDS011;50896;46.714;17.322;2023-06-24T09:50:24;0.30;;;0.10;;
64520;SDS011;50896;46.714;17.322;2023-06-24T09:52:51;0.00;;;0.00;;
64520;SDS011;50896;46.714;17.322;2023-06-24T09:55:19;1.60;;;0.10;;
64520;SDS011;50896;46.714;17.322;2023-06-24T09:57:46;0.95;;;0.10;;
64520;SDS011;50896;46.714;17.322;2023-06-24T10:00:17;0.10;;;0.10;;
64520;SDS011;50896;46.714;17.322;2023-06-24T10:02:46;1.05;;;0.20;;
64520;SDS011;50896;46.714;17.322;2023-06-24T10:05:14;0.30;;;0.10;;
64520;SDS011;50896;46.714;17.322;2023-06-24T10:07:41;0.50;;;0.50;;
64520;SDS011;50896;46.714;17.322;2023-06-24T10:10:09;1.45;;;0.38;;
64520;SDS011;50896;46.714;17.322;2023-06-24T10:12:37;1.75;;;0.13;;
64520;SDS011;50896;46.714;17.322;2023-06-24T10:15:05;1.38;;;0.20;;
64520;SDS011;50896;46.714;17.322;2023-06-24T10:17:32;0.10;;;0.10;;
64520;SDS011;50896;46.714;17.322;2023-06-24T10:20:03;3.03;;;0.20;;
64520;SDS011;50896;46.714;17.322;2023-06-24T10:22:30;2.85;;;0.20;;
64520;SDS011;50896;46.714;17.322;2023-06-24T10:25:01;0.47;;;0.13;;
64520;SDS011;50896;46.714;17.322;2023-06-24T10:27:37;3.08;;;0.13;;
64520;SDS011;50896;46.714;17.322;2023-06-24T10:30:06;2.38;;;0.20;;
64520;SDS011;50896;46.714;17.322;2023-06-24T10:32:41;2.80;;;0.20;;
64520;SDS011;50896;46.714;17.322;2023-06-24T10:35:21;0.60;;;0.40;;
64520;SDS011;50896;46.714;17.322;2023-06-24T10:37:55;0.38;;;0.20;;
64520;SDS011;50896;46.714;17.322;2023-06-24T10:45:54;0.52;;;0.30;;
64520;SDS011;50896;46.714;17.322;2023-06-24T10:48:25;0.20;;;0.20;;
64520;SDS011;50896;46.714;17.322;2023-06-24T10:50:52;0.75;;;0.40;;
64520;SDS011;50896;46.714;17.322;2023-06-24T10:53:19;0.60;;;0.50;;
64520;SDS011;50896;46.714;17.322;2023-06-24T10:55:48;1.05;;;0.50;;
64520;SDS011;50896;46.714;17.322;2023-06-24T10:58:15;1.58;;;0.60;;
64520;SDS011;50896;46.714;17.322;2023-06-24T11:00:42;3.45;;;0.52;;
64520;SDS011;50896;46.714;17.322;2023-06-24T11:03:14;0.85;;;0.52;;
64520;SDS011;50896;46.714;17.322;2023-06-24T11:05:43;0.82;;;0.60;;
64520;SDS011;50896;46.714;17.322;2023-06-24T11:08:11;3.42;;;1.00;;
64520;SDS011;50896;46.714;17.322;2023-06-24T11:10:45;2.97;;;1.20;;
64520;SDS011;50896;46.714;17.322;2023-06-24T11:13:13;1.30;;;1.08;;
64520;SDS011;50896;46.714;17.322;2023-06-24T11:15:40;3.20;;;1.20;;
64520;SDS011;50896;46.714;17.322;2023-06-24T11:18:08;2.40;;;1.40;;
64520;SDS011;50896;46.714;17.322;2023-06-24T11:20:36;1.17;;;1.10;;
64520;SDS011;50896;46.714;17.322;2023-06-24T11:23:09;1.47;;;1.20;;
64520;SDS011;50896;46.714;17.322;2023-06-24T11:25:40;1.98;;;1.23;;
64520;SDS011;50896;46.714;17.322;2023-06-24T11:28:18;0.82;;;0.82;;
64520;SDS011;50896;46.714;17.322;2023-06-24T11:30:48;1.10;;;1.00;;
64520;SDS011;50896;46.714;17.322;2023-06-24T11:33:26;2.47;;;0.90;;
64520;SDS011;50896;46.714;17.322;2023-06-24T11:35:56;0.80;;;0.80;;
64520;SDS011;50896;46.714;17.322;2023-06-24T11:38:23;1.38;;;0.90;;
64520;SDS011;50896;46.714;17.322;2023-06-24T11:40:50;0.95;;;0.95;;
64520;SDS011;50896;46.714;17.322;2023-06-24T11:43:17;2.15;;;1.00;;
64520;SDS011;50896;46.714;17.322;2023-06-24T11:45:47;0.63;;;0.63;;
64520;SDS011;50896;46.714;17.322;2023-06-24T11:48:14;2.25;;;0.70;;
64520;SDS011;50896;46.714;17.322;2023-06-24T11:50:41;1.48;;;1.38;;
64520;SDS011;50896;46.714;17.322;2023-06-24T11:53:08;0.90;;;0.90;;
64520;SDS011;50896;46.714;17.322;2023-06-24T11:55:35;1.38;;;1.27;;
64520;SDS011;50896;46.714;17.322;2023-06-24T11:58:02;1.48;;;1.20;;
64520;SDS011;50896;46.714;17.322;2023-06-24T12:00:33;1.58;;;1.08;;
64520;SDS011;50896;46.714;17.322;2023-06-24T12:03:05;1.60;;;1.27;;
64520;SDS011;50896;46.714;17.322;2023-06-24T12:05:37;1.40;;;1.30;;
64520;SDS011;50896;46.714;17.322;2023-06-24T12:08:11;1.52;;;1.42;;
64520;SDS011;50896;46.714;17.322;2023-06-24T12:10:40;1.50;;;1.40;;
64520;SDS011;50896;46.714;17.322;2023-06-24T12:13:07;2.08;;;1.20;;
64520;SDS011;50896;46.714;17.322;2023-06-24T12:15:36;1.70;;;1.60;;
64520;SDS011;50896;46.714;17.322;2023-06-24T12:18:03;1.08;;;1.00;;
64520;SDS011;50896;46.714;17.322;2023-06-24T12:20:31;2.63;;;1.50;;
64520;SDS011;50896;46.714;17.322;2023-06-24T12:23:03;1.50;;;1.40;;
64520;SDS011;50896;46.714;17.322;2023-06-24T12:25:30;1.70;;;1.50;;
64520;SDS011;50896;46.714;17.322;2023-06-24T12:27:57;3.55;;;1.20;;
64520;SDS011;50896;46.714;17.322;2023-06-24T12:30:26;1.88;;;1.35;;
64520;SDS011;50896;46.714;17.322;2023-06-24T12:32:54;2.00;;;1.30;;
64520;SDS011;50896;46.714;17.322;2023-06-24T12:35:21;1.13;;;1.02;;
64520;SDS011;50896;46.714;17.322;2023-06-24T12:37:51;2.67;;;1.27;;
64520;SDS011;50896;46.714;17.322;2023-06-24T12:40:18;1.92;;;1.10;;
64520;SDS011;50896;46.714;17.322;2023-06-24T12:42:45;1.95;;;1.05;;
64520;SDS011;50896;46.714;17.322;2023-06-24T12:45:12;2.22;;;1.30;;
64520;SDS011;50896;46.714;17.322;2023-06-24T12:47:40;1.98;;;1.35;;
64520;SDS011;50896;46.714;17.322;2023-06-24T12:50:07;1.60;;;1.30;;
64520;SDS011;50896;46.714;17.322;2023-06-24T12:52:35;2.05;;;1.10;;
64520;SDS011;50896;46.714;17.322;2023-06-24T12:55:03;1.92;;;1.10;;
64520;SDS011;50896;46.714;17.322;2023-06-24T12:57:30;2.38;;;1.23;;
64520;SDS011;50896;46.714;17.322;2023-06-24T12:59:57;1.38;;;1.20;;
64520;SDS011;50896;46.714;17.322;2023-06-24T13:02:24;1.92;;;1.27;;
64520;SDS011;50896;46.714;17.322;2023-06-24T13:04:51;3.90;;;1.10;;
64520;SDS011;50896;46.714;17.322;2023-06-24T13:07:18;1.13;;;1.02;;
64520;SDS011;50896;46.714;17.322;2023-06-24T13:09:45;1.27;;;1.10;;
64520;SDS011;50896;46.714;17.322;2023-06-24T13:12:12;0.90;;;0.90;;
64520;SDS011;50896;46.714;17.322;2023-06-24T13:14:39;1.38;;;0.88;;
64520;SDS011;50896;46.714;17.322;2023-06-24T13:17:05;1.38;;;0.90;;
64520;SDS011;50896;46.714;17.322;2023-06-24T13:19:32;2.25;;;1.10;;
64520;SDS011;50896;46.714;17.322;2023-06-24T13:21:59;0.70;;;0.70;;
64520;SDS011;50896;46.714;17.322;2023-06-24T13:24:26;2.03;;;1.00;;
64520;SDS011;50896;46.714;17.322;2023-06-24T13:26:53;1.08;;;0.80;;
64520;SDS011;50896;46.714;17.322;2023-06-24T13:29:19;1.17;;;1.00;;
64520;SDS011;50896;46.714;17.322;2023-06-24T13:31:47;1.10;;;1.00;;
64520;SDS011;50896;46.714;17.322;2023-06-24T13:34:13;1.77;;;0.80;;
64520;SDS011;50896;46.714;17.322;2023-06-24T13:36:40;1.20;;;1.02;;
64520;SDS011;50896;46.714;17.322;2023-06-24T13:39:08;1.80;;;0.90;;
64520;SDS011;50896;46.714;17.322;2023-06-24T13:41:38;3.33;;;0.77;;
64520;SDS011;50896;46.714;17.322;2023-06-24T13:44:06;1.90;;;0.85;;
64520;SDS011;50896;46.714;17.322;2023-06-24T13:46:33;1.83;;;1.05;;
64520;SDS011;50896;46.714;17.322;2023-06-24T13:48:59;1.60;;;0.90;;
64520;SDS011;50896;46.714;17.322;2023-06-24T13:51:31;5.22;;;1.20;;
64520;SDS011;50896;46.714;17.322;2023-06-24T13:53:58;1.42;;;1.00;;
64520;SDS011;50896;46.714;17.322;2023-06-24T13:56:25;3.55;;;1.08;;
64520;SDS011;50896;46.714;17.322;2023-06-24T13:58:53;2.67;;;1.23;;
64520;SDS011;50896;46.714;17.322;2023-06-24T14:01:21;1.65;;;1.25;;
64520;SDS011;50896;46.714;17.322;2023-06-24T14:03:49;1.58;;;1.13;;
64520;SDS011;50896;46.714;17.322;2023-06-24T14:06:17;2.45;;;1.10;;
64520;SDS011;50896;46.714;17.322;2023-06-24T14:08:45;3.10;;;1.30;;
64520;SDS011;50896;46.714;17.322;2023-06-24T14:11:12;2.08;;;1.35;;
64520;SDS011;50896;46.714;17.322;2023-06-24T14:13:39;2.47;;;1.40;;
64520;SDS011;50896;46.714;17.322;2023-06-24T14:16:07;2.03;;;1.20;;
64520;SDS011;50896;46.714;17.322;2023-06-24T14:18:34;1.58;;;1.40;;
64520;SDS011;50896;46.714;17.322;2023-06-24T14:21:02;2.10;;;1.30;;
64520;SDS011;50896;46.714;17.322;2023-06-24T14:23:30;1.88;;;1.27;;
64520;SDS011;50896;46.714;17.322;2023-06-24T14:25:58;1.40;;;1.30;;
64520;SDS011;50896;46.714;17.322;2023-06-24T14:28:26;1.42;;;1.10;;
64520;SDS011;50896;46.714;17.322;2023-06-24T14:30:53;1.75;;;1.20;;
64520;SDS011;50896;46.714;17.322;2023-06-24T14:33:20;1.98;;;1.40;;
64520;SDS011;50896;46.714;17.322;2023-06-24T14:35:47;3.20;;;1.35;;
64520;SDS011;50896;46.714;17.322;2023-06-24T14:38:13;1.92;;;1.60;;
64520;SDS011;50896;46.714;17.322;2023-06-24T14:40:40;2.97;;;1.48;;
64520;SDS011;50896;46.714;17.322;2023-06-24T14:43:07;1.70;;;1.40;;
64520;SDS011;50896;46.714;17.322;2023-06-24T14:45:34;2.35;;;1.65;;
64520;SDS011;50896;46.714;17.322;2023-06-24T14:48:01;2.08;;;1.85;;
64520;SDS011;50896;46.714;17.322;2023-06-24T14:50:28;2.78;;;1.60;;
64520;SDS011;50896;46.714;17.322;2023-06-24T14:52:54;1.67;;;1.58;;
64520;SDS011;50896;46.714;17.322;2023-06-24T14:55:21;2.10;;;1.80;;
64520;SDS011;50896;46.714;17.322;2023-06-24T14:57:49;1.63;;;1.52;;
64520;SDS011;50896;46.714;17.322;2023-06-24T15:00:16;4.75;;;1.88;;